• Join FlightAware (Why Join?)
  • Login
  • US Flag 
08:07AM EDT


 

Airport Tracker/Info


-or-


 

Live Flight TrackerFlight Track Log ✈ RPA3242 ✈ 15-May-2013 ✈ KDTW - KPHL

Flight Track Log - Related Links

Times and Time Zones

All times are in EDT time to prevent confusion due to time zone crossing. See the RPA3242 flight status page for this flight to view local times or setup timezone preferences in your user account.

Time Position Orientation Groundspeed Altitude Reporting Facility
EDT Latitude Longitude Course Direction KTS MPH feet Rate Location/Type
06:27PM 42.2017 -83.3583 90° East 155 178 1,200  Level Cleveland Center
06:28PM 42.1558 -83.3533 175° South 215 247 2,500 2,160 Climbing Cleveland Center
06:29PM 42.0914 -83.3422 173° South 243 280 5,400 2,520 Climbing Cleveland Center
06:30PM 42.2167 -82.8310 90° East  Level FlightAware Approximate
06:30PM 42.0581 -83.2569 118° Southeast 322 371 7,700  Level Cleveland Center
06:31PM 42.2167 -82.7001 90° East  Level FlightAware Approximate
06:31PM 42.0928 -83.0989 73° East 327 376 10,900  Level Cleveland Center
06:32PM 42.2167 -82.5691 90° East  Level FlightAware Approximate
06:32PM 42.1208 -82.9656 74° East 334 384 12,600  Level Cleveland Center
06:33PM 42.1486 -82.8208 75° East 367 422 14,500 1,980 Climbing Cleveland Center
06:34PM 42.1558 -82.6642 86° East 407 468 16,600 2,040 Climbing Cleveland Center
06:35PM 42.0958 -82.5222 120° Southeast 406 467 18,600 2,040 Climbing Cleveland Center
06:36PM 42.0314 -82.3722 120° Southeast 418 481 20,700 1,860 Climbing Cleveland Center
06:37PM 41.9711 -82.2225 118° Southeast 439 505 22,400 1,680 Climbing Cleveland Center
06:38PM 41.9044 -82.0731 121° Southeast 453 521 24,100 1,680 Climbing Cleveland Center
06:39PM 41.8397 -81.9181 119° Southeast 463 533 25,800 1,440 Climbing Cleveland Center
06:40PM 41.7744 -81.7664 120° Southeast 469 540 27,000 1,020 Climbing Cleveland Center
06:41PM 41.7072 -81.6067 119° Southeast 480 552 27,900 900 Climbing Cleveland Center
06:42PM 41.6481 -81.4611 119° Southeast 490 564 28,900 1,200 Climbing Cleveland Center
06:43PM 41.5803 -81.3050 120° Southeast 490 564 30,400 1,020 Climbing Cleveland Center
06:44PM 41.5189 -81.1433 117° Southeast 490 564 31,000 300 Climbing Cleveland Center
06:45PM 41.4967 -80.9547 99° East 490 564 31,000  Level Cleveland Center
06:46PM 41.4825 -80.7661 96° East 500 575 31,000  Level Cleveland Center
06:47PM 41.4658 -80.5747 97° East 510 587 31,000  Level Cleveland Center
06:48PM 41.4492 -80.3864 97° East 510 587 31,000 -480 Level Cleveland Center
06:49PM 41.4297 -80.1956 98° East 515 593 30,100 -1,200 Descending Cleveland Center
06:50PM 41.4125 -80.0100 97° East 515 593 28,600 -1,560 Descending Cleveland Center
06:51PM 41.3903 -79.8053 98° East 515 593 27,000 -1,620 Descending Cleveland Center
06:52PM 41.3767 -79.6367 96° East 510 587 25,400 -2,100 Descending Cleveland Center
06:53PM 41.3564 -79.4628 99° East 497 572 22,800 -2,640 Descending Cleveland Center
06:54PM 41.3375 -79.2778 98° East 472 543 20,200 -2,700 Descending Cleveland Center
06:55PM 41.3189 -79.1042 98° East 472 543 17,500 -1,620 Descending Cleveland Center
06:56PM 41.2978 -78.9414 100° East 462 532 17,000 -300 Descending Cleveland Center
06:57PM 41.2686 -78.7903 104° East 462 532 17,000  Level Cleveland Center
06:58PM 41.2367 -78.6364 105° East 455 524 17,000 -60 Level Cleveland Center
07:00PM 41.1739 -78.3381 106° East 441 507 16,900 -60 Descending New York Center
07:01PM 41.1419 -78.1858 106° East 441 507 16,900  Level New York Center
07:02PM 41.1097 -78.0333 106° East 436 502 17,000  Climbing New York Center
07:03PM 41.0772 -77.8814 106° East 436 502 17,000  Level New York Center
07:04PM 41.0425 -77.7289 107° East 436 502 17,000 -60 Level New York Center
07:05PM 41.0097 -77.5744 106° East 436 502 16,900 -60 Descending New York Center
07:06PM 40.9767 -77.4225 106° East 436 502 16,900  Level New York Center
07:07PM 40.9433 -77.2708 106° East 431 496 16,900  Level New York Center
07:08PM 40.9078 -77.1192 107° East 431 496 16,900  Level New York Center
07:09PM 40.8728 -76.9539 106° East 431 496 16,900 -420 Level New York Center
07:10PM 40.8425 -76.8167 106° East 431 496 16,100 -1,080 Descending New York Center
07:11PM 40.8081 -76.6683 107° East 431 496 14,800 -1,320 Descending New York Center
07:12PM 40.7722 -76.5092 107° East 426 490 13,500 -1,320 Descending New York Center
07:13PM 40.7431 -76.3806 107° East 414 476 12,300 -1,260 Descending New York Center
07:14PM 40.7047 -76.2158 107° East 415 478 11,000 -660 Descending New York Center
07:15PM 40.6736 -76.0767 106° East 408 470 11,000  Level New York Center
07:16PM 40.6419 -75.9428 107° East 408 470 11,000  Level New York Center
07:17PM 40.5978 -75.8139 114° Southeast 408 470 11,000  Level New York Center
07:18PM 40.5414 -75.6675 117° Southeast 398 458 11,000 -540 Level New York Center
07:19PM 40.4981 -75.5500 116° Southeast 403 464 10,000 -540 Descending New York Center
07:20PM 40.4397 -75.4506 128° Southeast 369 425 10,000 -600 Level New York Center
07:21PM 40.3586 -75.3878 149° Southeast 341 392 8,900 -1,440 Descending New York Center
07:22PM 40.2717 -75.3219 150° Southeast 329 379 7,200 -1,500 Descending New York Center
07:23PM 40.1897 -75.2867 162° South 318 366 6,000 -600 Descending New York Center
07:24PM 40.1222 -75.2525 159° South 285 328 6,000  Level New York Center
07:25PM 40.0692 -75.2247 158° South 242 278 6,000  Level New York Center
07:26PM 40.0061 -75.1800 151° Southeast 234 269 6,000 -240 Level New York Center
07:27PM 40.0111 -75.1017 85° East 211 243 5,600 -540 Descending New York Center
07:28PM 40.0333 -75.0000 74° East 236 272 5,000 -420 Descending Philadelphia TRACON
07:29PM 40.0333 -74.9167 90° East 233 268 4,800 -480 Descending Philadelphia TRACON
07:30PM 39.9667 -74.9167 180° South 167 192 4,000 -420 Descending Philadelphia TRACON
07:31PM 39.9500 -74.9500 237° Southwest 154 177 4,000 -300 Level Philadelphia TRACON
07:32PM 39.9167 -74.9833 217° Southwest 141 162 3,500 -600 Descending Philadelphia TRACON
07:33PM 39.9167 -75.0333 270° West 142 163 2,800 -780 Descending Philadelphia TRACON
07:34PM 39.9000 -75.1000 252° West 152 175 2,000 -900 Descending Philadelphia TRACON
07:35PM 39.8833 -75.1500 247° West 159 183 1,100 -840 Descending Philadelphia TRACON
07:36PM 39.8833 -75.2000 270° West 133 153 500 -720 Descending Philadelphia TRACON